Time;durP1;ratioP1;P1;durP2;ratioP2;P2;SDS_P1;SDS_P2;PMS_P1;PMS_P2;Temp;Humidity;BMP_temperature;BMP_pressure;BME280_temperature;BME280_humidity;BME280_pressure;Samples;Min_cycle;Max_cycle;Signal;HPM_P1;HPM_P2
2022/05/16 00:00:25;;;;;;;2.52;2.05;;;16.00;65.10;;;;;;1843625;77;21042;-56
2022/05/16 00:02:55;;;;;;;4.75;2.27;;;16.00;65.60;;;;;;1843483;77;21146;-56
2022/05/16 00:05:25;;;;;;;3.90;2.00;;;16.00;65.10;;;;;;1843530;78;21135;-56
2022/05/16 00:07:54;;;;;;;3.12;1.92;;;16.00;65.20;;;;;;1843414;78;21085;-56
2022/05/16 00:10:24;;;;;;;3.50;2.12;;;16.00;65.10;;;;;;1843528;77;21342;-56
2022/05/16 00:12:54;;;;;;;4.12;2.10;;;16.00;65.10;;;;;;1843319;77;21147;-56
2022/05/16 00:15:25;;;;;;;5.62;2.45;;;16.00;64.90;;;;;;1843133;77;21108;-56
2022/05/16 00:17:54;;;;;;;9.10;2.62;;;15.90;64.90;;;;;;1843152;78;21175;-56
2022/05/16 00:20:24;;;;;;;3.47;2.42;;;15.90;65.20;;;;;;1843151;78;21081;-56
2022/05/16 00:22:53;;;;;;;4.47;2.25;;;16.00;65.70;;;;;;1843186;77;21062;-56
2022/05/16 00:25:23;;;;;;;4.10;2.20;;;16.00;65.80;;;;;;1843163;77;21046;-56
2022/05/16 00:27:52;;;;;;;2.95;2.00;;;16.00;65.80;;;;;;1843107;78;21115;-56
2022/05/16 00:30:22;;;;;;;7.95;2.47;;;16.00;65.50;;;;;;1843149;77;21041;-55
2022/05/16 00:32:52;;;;;;;5.85;2.27;;;16.00;65.50;;;;;;1843136;76;21105;-57
2022/05/16 00:35:22;;;;;;;4.70;2.08;;;15.90;65.40;;;;;;1843208;77;21038;-56
2022/05/16 00:37:52;;;;;;;3.05;2.37;;;15.90;65.60;;;;;;1843209;76;21022;-55
2022/05/16 00:40:21;;;;;;;3.25;2.30;;;15.90;65.50;;;;;;1843138;77;21050;-56
2022/05/16 00:42:58;;;;;;;4.45;2.20;;;15.90;65.80;;;;;;1843040;76;21093;-56
2022/05/16 00:45:22;;;;;;;4.62;2.30;;;15.80;65.60;;;;;;1844225;76;21146;-56
2022/05/16 00:47:51;;;;;;;4.20;2.55;;;15.90;65.70;;;;;;1843091;76;21034;-56
2022/05/16 00:50:21;;;;;;;4.65;3.08;;;15.80;65.50;;;;;;1843239;77;21026;-56
2022/05/16 00:52:52;;;;;;;3.58;2.60;;;15.80;65.50;;;;;;1843088;77;21042;-56
2022/05/16 00:55:33;;;;;;;4.45;2.85;;;15.70;65.60;;;;;;1843292;78;21139;-56
2022/05/16 00:58:07;;;;;;;4.22;2.80;;;15.60;65.60;;;;;;1843185;76;21089;-57
2022/05/16 01:00:39;;;;;;;4.95;2.58;;;15.50;65.90;;;;;;1841887;78;21050;-56
2022/05/16 01:05:58;;;;;;;3.55;2.47;;;15.40;66.10;;;;;;1843126;78;21136;-55
2022/05/16 01:08:30;;;;;;;6.12;2.25;;;15.40;66.40;;;;;;1843113;78;21112;-56
2022/05/16 01:11:05;;;;;;;2.60;2.25;;;15.40;66.40;;;;;;1843172;78;21042;-56
2022/05/16 01:13:34;;;;;;;3.87;2.17;;;15.40;66.30;;;;;;1843347;76;21140;-56
2022/05/16 01:16:05;;;;;;;2.90;2.17;;;15.50;66.20;;;;;;1843197;78;21116;-56
2022/05/16 01:18:34;;;;;;;3.60;2.42;;;15.60;66.20;;;;;;1843127;77;21077;-56
2022/05/16 01:21:06;;;;;;;3.87;2.30;;;15.60;66.10;;;;;;1843220;76;21113;-56
2022/05/16 01:23:44;;;;;;;6.05;2.25;;;15.60;66.10;;;;;;1842799;76;21480;-55
2022/05/16 01:26:16;;;;;;;4.53;2.65;;;15.60;66.20;;;;;;1841598;77;21066;-56
2022/05/16 01:28:46;;;;;;;8.38;2.98;;;15.60;66.20;;;;;;1843100;76;21543;-56
2022/05/16 01:31:15;;;;;;;3.67;2.25;;;15.60;66.30;;;;;;1843205;77;21179;-56
2022/05/16 01:33:44;;;;;;;3.42;2.67;;;15.60;66.20;;;;;;1843098;77;21135;-56
2022/05/16 01:36:13;;;;;;;4.15;2.40;;;15.60;66.10;;;;;;1843076;78;21559;-56
2022/05/16 01:38:43;;;;;;;3.52;2.15;;;15.60;65.90;;;;;;1843119;76;21050;-56
2022/05/16 01:41:14;;;;;;;4.65;2.42;;;15.60;65.80;;;;;;1843066;77;21046;-55
2022/05/16 01:43:47;;;;;;;4.80;2.30;;;15.60;65.60;;;;;;1843031;77;21140;-56
2022/05/16 01:46:19;;;;;;;3.08;2.47;;;15.60;65.80;;;;;;1842697;77;21124;-56
2022/05/16 01:48:49;;;;;;;4.80;2.22;;;15.60;65.90;;;;;;1843101;78;21066;-56
2022/05/16 01:51:18;;;;;;;3.98;2.70;;;15.60;65.90;;;;;;1843178;77;21042;-56
2022/05/16 01:53:47;;;;;;;2.80;2.25;;;15.60;66.10;;;;;;1843220;78;21092;-56
2022/05/16 01:56:17;;;;;;;3.30;2.17;;;15.60;66.10;;;;;;1843178;78;21018;-56
2022/05/16 01:58:47;;;;;;;4.70;2.33;;;15.60;66.10;;;;;;1843041;76;21144;-56
2022/05/16 02:01:17;;;;;;;6.28;2.83;;;15.50;66.20;;;;;;1843064;77;21038;-56
2022/05/16 02:03:49;;;;;;;5.42;2.80;;;15.50;66.50;;;;;;1843030;78;21049;-56
2022/05/16 02:06:19;;;;;;;6.78;2.95;;;15.60;66.60;;;;;;1843139;78;21038;-55
2022/05/16 02:08:48;;;;;;;5.10;2.40;;;15.60;66.80;;;;;;1843104;77;21045;-55
2022/05/16 02:11:18;;;;;;;3.25;2.42;;;15.60;67.00;;;;;;1843061;77;21058;-56
2022/05/16 02:13:47;;;;;;;4.08;2.90;;;15.60;67.30;;;;;;1841376;77;21066;-56
2022/05/16 02:16:16;;;;;;;5.25;2.90;;;15.70;67.10;;;;;;1837030;78;21022;-55
2022/05/16 02:18:46;;;;;;;4.03;2.92;;;15.70;66.50;;;;;;1836888;78;21022;-56
2022/05/16 02:26:49;;;;;;;4.67;3.20;;;15.20;66.00;;;;;;1837112;77;21054;-55
2022/05/16 02:29:19;;;;;;;4.25;3.37;;;14.90;66.40;;;;;;1836906;78;21074;-56
2022/05/16 02:31:50;;;;;;;4.45;3.27;;;14.80;66.90;;;;;;1836844;78;21128;-56
2022/05/16 02:34:19;;;;;;;9.70;3.33;;;14.90;67.10;;;;;;1836882;77;21050;-56
2022/05/16 02:36:48;;;;;;;5.35;3.20;;;15.00;66.80;;;;;;1836911;78;21116;-56
2022/05/16 02:39:18;;;;;;;5.58;3.33;;;14.90;66.40;;;;;;1836895;78;21460;-56
2022/05/16 02:41:47;;;;;;;5.22;3.20;;;14.80;66.70;;;;;;1836862;78;21030;-56
2022/05/16 02:44:16;;;;;;;5.70;3.42;;;14.70;67.10;;;;;;1836909;77;21120;-55
2022/05/16 02:46:46;;;;;;;4.67;3.25;;;14.60;67.40;;;;;;1836810;77;21108;-56
2022/05/16 02:49:15;;;;;;;4.00;3.08;;;14.60;67.60;;;;;;1836861;78;21101;-56
2022/05/16 02:51:44;;;;;;;6.00;3.05;;;14.50;67.50;;;;;;1836876;78;21079;-56
2022/05/16 02:54:14;;;;;;;15.15;3.75;;;14.50;67.90;;;;;;1836968;77;21042;-56
2022/05/16 02:56:43;;;;;;;4.17;3.35;;;14.50;68.10;;;;;;1837014;77;21038;-56
2022/05/16 02:59:12;;;;;;;6.67;3.55;;;14.40;68.10;;;;;;1836951;78;21034;-56
2022/05/16 03:01:42;;;;;;;5.67;3.15;;;14.40;68.30;;;;;;1837015;77;21153;-56
2022/05/16 03:04:12;;;;;;;8.08;3.20;;;14.40;68.50;;;;;;1836933;78;21120;-56
2022/05/16 03:06:42;;;;;;;4.87;3.42;;;14.40;68.80;;;;;;1836955;78;21046;-56
2022/05/16 03:09:11;;;;;;;4.47;3.22;;;14.50;68.80;;;;;;1837025;78;21128;-56
2022/05/16 03:11:41;;;;;;;7.83;2.83;;;14.60;69.00;;;;;;1837075;77;21042;-56
2022/05/16 03:14:10;;;;;;;4.28;3.00;;;14.60;68.80;;;;;;1837987;77;21219;-56
2022/05/16 03:16:40;;;;;;;3.65;3.22;;;14.70;68.70;;;;;;1843268;76;21041;-55
2022/05/16 03:19:09;;;;;;;3.60;3.12;;;14.80;68.70;;;;;;1843269;78;21108;-56
2022/05/16 03:21:38;;;;;;;8.53;3.12;;;14.90;68.70;;;;;;1843127;77;21046;-56
2022/05/16 03:24:09;;;;;;;10.98;3.55;;;15.00;68.60;;;;;;1843082;76;21128;-56
2022/05/16 03:26:39;;;;;;;11.35;3.37;;;15.20;68.70;;;;;;1843109;78;21124;-56
2022/05/16 03:29:11;;;;;;;11.20;3.30;;;15.30;68.50;;;;;;1843151;76;21115;-56
2022/05/16 03:31:40;;;;;;;16.85;3.72;;;15.40;68.50;;;;;;1843311;77;21066;-56
2022/05/16 03:34:10;;;;;;;10.38;3.15;;;15.50;68.30;;;;;;1843249;77;21112;-56
2022/05/16 03:36:40;;;;;;;7.12;3.22;;;15.70;68.30;;;;;;1843118;76;21050;-56
2022/05/16 03:41:57;;;;;;;6.12;2.77;;;16.00;68.10;;;;;;1843241;76;21030;-56
2022/05/16 03:44:27;;;;;;;5.75;2.95;;;16.10;67.80;;;;;;1843274;76;21045;-56
2022/05/16 03:46:56;;;;;;;8.13;3.20;;;16.20;67.60;;;;;;1843176;77;21026;-56
2022/05/16 03:49:26;;;;;;;5.40;2.80;;;16.40;67.30;;;;;;1843114;76;21117;-56
2022/05/16 03:51:55;;;;;;;9.00;3.30;;;16.50;67.00;;;;;;1843340;77;21049;-56
2022/05/16 03:54:25;;;;;;;5.17;3.02;;;16.60;66.80;;;;;;1843277;76;21127;-56
2022/05/16 03:56:54;;;;;;;9.60;3.30;;;16.70;66.50;;;;;;1843193;77;21018;-56
2022/05/16 03:59:24;;;;;;;3.80;3.33;;;16.80;66.50;;;;;;1843240;76;21042;-56
2022/05/16 04:01:53;;;;;;;6.45;2.85;;;16.90;66.40;;;;;;1843048;76;21111;-56
2022/05/16 04:04:22;;;;;;;7.30;2.83;;;17.00;66.20;;;;;;1843082;77;21100;-56
2022/05/16 04:06:52;;;;;;;6.55;2.60;;;17.10;66.00;;;;;;1843157;77;21042;-56
2022/05/16 04:09:21;;;;;;;6.17;2.95;;;17.20;65.90;;;;;;1843231;76;21103;-56
2022/05/16 04:11:50;;;;;;;4.33;2.65;;;17.30;65.80;;;;;;1843219;77;21046;-55
2022/05/16 04:14:20;;;;;;;5.87;2.90;;;17.40;65.70;;;;;;1843251;76;21116;-55
2022/05/16 04:16:49;;;;;;;4.55;2.33;;;17.50;65.70;;;;;;1837121;77;21129;-56
2022/05/16 04:19:19;;;;;;;13.30;3.47;;;17.60;65.50;;;;;;1837020;78;21210;-55
2022/05/16 04:21:48;;;;;;;5.45;2.45;;;17.80;64.90;;;;;;1836961;78;21121;-56
2022/05/16 04:24:18;;;;;;;3.50;2.60;;;18.00;64.40;;;;;;1836880;77;21038;-56
2022/05/16 04:26:47;;;;;;;6.80;2.95;;;18.20;64.00;;;;;;1836858;77;21042;-56
2022/05/16 04:29:16;;;;;;;4.15;2.00;;;18.30;63.40;;;;;;1836939;77;21047;-56
2022/05/16 04:31:45;;;;;;;7.72;2.87;;;18.50;63.00;;;;;;1836924;78;21057;-56
2022/05/16 04:34:15;;;;;;;10.85;3.55;;;18.60;62.60;;;;;;1837043;77;21101;-56
2022/05/16 04:36:44;;;;;;;4.85;2.30;;;18.70;62.50;;;;;;1836937;77;21038;-56
2022/05/16 04:39:13;;;;;;;18.35;4.30;;;18.80;62.20;;;;;;1837117;78;21125;-55
2022/05/16 04:44:36;;;;;;;5.65;3.22;;;19.10;61.30;;;;;;1836914;78;21050;-56
2022/05/16 04:47:01;;;;;;;5.12;3.25;;;19.20;61.20;;;;;;1837658;76;21112;-56
2022/05/16 04:49:31;;;;;;;9.38;3.15;;;19.20;60.80;;;;;;1836951;77;21058;-56
2022/05/16 04:52:00;;;;;;;6.78;2.95;;;19.30;60.60;;;;;;1836942;78;21042;-56
2022/05/16 04:54:30;;;;;;;7.30;2.75;;;19.40;60.30;;;;;;1836956;78;21042;-56
2022/05/16 04:56:59;;;;;;;8.30;2.85;;;19.50;60.20;;;;;;1836987;78;21050;-56
2022/05/16 04:59:28;;;;;;;5.67;2.75;;;19.50;59.70;;;;;;1836932;78;21152;-55
2022/05/16 05:01:58;;;;;;;5.75;3.33;;;19.60;59.80;;;;;;1836922;77;21123;-56
2022/05/16 05:04:27;;;;;;;7.15;3.40;;;19.70;59.70;;;;;;1836860;78;21026;-56
2022/05/16 05:06:57;;;;;;;5.37;2.80;;;19.80;59.90;;;;;;1836973;78;21041;-56
2022/05/16 05:09:26;;;;;;;4.45;2.47;;;19.90;59.00;;;;;;1836974;77;21041;-55
2022/05/16 05:14:44;;;;;;;2.80;2.47;;;20.00;58.00;;;;;;1836799;78;21128;-56
2022/05/16 05:17:14;;;;;;;8.15;3.20;;;20.10;58.00;;;;;;1842547;77;21143;-56
2022/05/16 05:19:43;;;;;;;4.87;2.87;;;20.20;58.10;;;;;;1843137;78;21100;-56
2022/05/16 05:22:13;;;;;;;35.50;5.30;;;20.30;57.90;;;;;;1842959;77;21033;-56
2022/05/16 05:24:42;;;;;;;5.87;3.02;;;20.30;57.70;;;;;;1843060;78;21037;-56
2022/05/16 05:27:11;;;;;;;10.00;3.15;;;20.40;57.40;;;;;;1843015;76;21132;-56
2022/05/16 05:29:40;;;;;;;9.93;3.45;;;20.50;57.00;;;;;;1843043;77;21111;-56
2022/05/16 05:32:10;;;;;;;9.10;3.30;;;20.50;56.80;;;;;;1843147;76;21014;-56
2022/05/16 05:34:42;;;;;;;12.03;3.75;;;20.60;56.50;;;;;;1843126;78;21034;-56
2022/05/16 05:37:11;;;;;;;11.25;3.08;;;20.60;56.60;;;;;;1843097;76;21042;-56
2022/05/16 05:39:41;;;;;;;10.85;3.40;;;20.70;56.70;;;;;;1843187;77;21046;-56
2022/05/16 05:42:10;;;;;;;5.05;3.12;;;20.80;56.80;;;;;;1843144;77;21057;-56
2022/05/16 05:44:40;;;;;;;14.10;3.45;;;20.80;56.50;;;;;;1843074;76;21070;-56
2022/05/16 05:47:09;;;;;;;3.77;2.72;;;20.80;56.80;;;;;;1843120;78;21050;-56
2022/05/16 05:49:39;;;;;;;4.00;2.62;;;20.90;56.30;;;;;;1843182;77;21049;-56
2022/05/16 05:52:08;;;;;;;4.72;2.72;;;21.00;56.30;;;;;;1843191;77;21053;-56
2022/05/16 05:54:38;;;;;;;5.15;2.92;;;21.00;56.00;;;;;;1843278;77;21050;-56
2022/05/16 05:57:07;;;;;;;4.03;2.95;;;21.00;56.30;;;;;;1843306;76;21050;-56
2022/05/16 05:59:37;;;;;;;5.20;2.92;;;21.10;55.00;;;;;;1843195;77;21046;-56
2022/05/16 06:02:08;;;;;;;5.25;3.00;;;21.10;55.00;;;;;;1843138;77;21082;-55
2022/05/16 06:04:38;;;;;;;4.28;2.70;;;21.10;54.60;;;;;;1843183;78;21554;-56
2022/05/16 06:07:07;;;;;;;4.65;3.15;;;21.20;54.20;;;;;;1843040;77;21018;-58
2022/05/16 06:09:37;;;;;;;12.80;3.67;;;21.20;54.10;;;;;;1843247;77;21022;-58
2022/05/16 06:12:07;;;;;;;9.53;3.30;;;21.20;54.00;;;;;;1843241;78;21081;-56
2022/05/16 06:14:37;;;;;;;5.90;2.52;;;21.30;52.90;;;;;;1843222;77;21120;-56
2022/05/16 06:17:07;;;;;;;13.43;3.42;;;21.30;52.70;;;;;;1843192;77;21074;-56
2022/05/16 06:19:36;;;;;;;9.53;3.10;;;21.30;53.50;;;;;;1843230;78;21046;-56
2022/05/16 06:22:05;;;;;;;8.35;3.22;;;21.40;53.80;;;;;;1843223;78;21087;-56
2022/05/16 06:27:22;;;;;;;4.65;2.55;;;21.60;53.00;;;;;;1843212;76;21046;-56
2022/05/16 06:29:52;;;;;;;9.18;2.90;;;21.70;53.00;;;;;;1843129;76;22145;-56
2022/05/16 06:32:21;;;;;;;5.47;2.72;;;21.70;52.50;;;;;;1843201;77;21057;-56
2022/05/16 06:34:51;;;;;;;7.85;2.80;;;21.70;51.80;;;;;;1843267;76;21033;-57
2022/05/16 06:37:20;;;;;;;4.15;1.95;;;21.80;51.90;;;;;;1843207;78;21097;-56
2022/05/16 06:39:50;;;;;;;9.30;2.77;;;21.90;51.00;;;;;;1843263;77;21046;-56
2022/05/16 06:42:19;;;;;;;11.03;3.27;;;22.00;50.70;;;;;;1843086;78;21119;-57
2022/05/16 06:44:52;;;;;;;5.08;3.00;;;22.00;50.70;;;;;;1843235;76;21121;-57
2022/05/16 06:47:20;;;;;;;5.15;2.60;;;22.10;50.40;;;;;;1843170;78;21057;-57
2022/05/16 06:49:50;;;;;;;9.40;2.77;;;22.20;50.70;;;;;;1843159;76;21073;-57
2022/05/16 06:52:20;;;;;;;7.33;2.50;;;22.20;50.50;;;;;;1843200;78;21108;-57
2022/05/16 06:54:49;;;;;;;3.75;1.85;;;22.30;49.50;;;;;;1843235;77;21042;-57
2022/05/16 06:57:18;;;;;;;5.75;2.58;;;22.40;48.90;;;;;;1843245;78;21120;-56
2022/05/16 06:59:48;;;;;;;23.35;3.98;;;22.40;48.70;;;;;;1843195;77;21046;-57
2022/05/16 07:02:17;;;;;;;6.30;2.58;;;22.50;48.10;;;;;;1843135;78;21061;-57
2022/05/16 07:04:47;;;;;;;6.95;2.58;;;22.50;47.80;;;;;;1843109;77;21045;-57
2022/05/16 07:07:16;;;;;;;6.85;2.67;;;22.50;47.10;;;;;;1843071;76;21152;-57
2022/05/16 07:09:46;;;;;;;5.03;2.25;;;22.60;47.20;;;;;;1843261;78;21046;-57
2022/05/16 07:12:15;;;;;;;51.20;5.33;;;22.60;47.80;;;;;;1843233;76;21097;-57
2022/05/16 07:14:45;;;;;;;7.72;2.15;;;22.70;47.80;;;;;;1843106;78;21100;-56
2022/05/16 07:17:14;;;;;;;41.15;4.42;;;22.70;46.10;;;;;;1843157;77;21053;-57
2022/05/16 07:19:46;;;;;;;9.55;3.10;;;22.70;45.80;;;;;;1843287;78;21062;-57
2022/05/16 07:22:19;;;;;;;7.75;1.80;;;22.70;46.00;;;;;;1843204;77;21042;-57
2022/05/16 07:24:48;;;;;;;10.23;2.25;;;22.70;44.70;;;;;;1843226;78;21034;-57
2022/05/16 07:30:06;;;;;;;5.12;2.75;;;22.80;45.30;;;;;;1843228;76;21058;-57
2022/05/16 07:32:41;;;;;;;5.35;2.62;;;22.90;43.90;;;;;;1842727;76;21109;-57
2022/05/16 07:35:14;;;;;;;5.60;2.17;;;22.90;43.80;;;;;;1841814;76;21244;-57
2022/05/16 07:37:44;;;;;;;9.73;2.30;;;22.90;43.90;;;;;;1842482;76;21085;-57
2022/05/16 07:40:16;;;;;;;11.97;3.25;;;22.90;44.20;;;;;;1846549;78;21080;-56
2022/05/16 07:42:45;;;;;;;7.87;2.55;;;23.00;44.20;;;;;;1845014;78;21014;-57
2022/05/16 07:45:15;;;;;;;6.87;2.45;;;23.00;43.90;;;;;;1841528;78;21099;-56
2022/05/16 07:47:44;;;;;;;4.67;2.27;;;23.10;44.40;;;;;;1843068;77;21060;-57
2022/05/16 07:50:14;;;;;;;8.45;2.47;;;23.20;44.80;;;;;;1842855;78;21048;-56
2022/05/16 07:52:48;;;;;;;7.12;2.15;;;23.20;44.10;;;;;;1850002;76;21107;-57
2022/05/16 07:55:19;;;;;;;13.88;3.02;;;23.20;42.90;;;;;;1852130;77;21184;-57
2022/05/16 07:57:49;;;;;;;4.92;2.15;;;23.10;43.40;;;;;;1852059;77;21050;-57
2022/05/16 08:00:19;;;;;;;3.87;2.22;;;23.20;44.00;;;;;;1848072;76;21112;-55
2022/05/16 08:02:49;;;;;;;7.37;2.62;;;23.30;44.10;;;;;;1852612;76;21076;-55
2022/05/16 08:05:21;;;;;;;15.13;2.70;;;23.40;44.20;;;;;;1844374;76;21165;-55
2022/05/16 08:10:40;;;;;;;3.37;1.75;;;23.30;41.60;;;;;;1843960;76;21125;-55
2022/05/16 08:13:11;;;;;;;15.95;2.52;;;23.30;41.50;;;;;;1844859;76;21047;-56
2022/05/16 08:15:42;;;;;;;4.55;2.37;;;23.40;41.70;;;;;;1843565;76;21558;-55
2022/05/16 08:18:23;;;;;;;10.78;2.58;;;23.50;41.10;;;;;;1848330;77;21116;-56
2022/05/16 08:21:11;;;;;;;9.48;3.15;;;23.60;41.60;;;;;;1852146;77;21176;-55
2022/05/16 08:23:51;;;;;;;5.95;2.40;;;23.50;41.30;;;;;;1858474;76;21095;-55
2022/05/16 08:26:33;;;;;;;8.63;3.05;;;23.40;41.60;;;;;;1852745;76;21062;-57
2022/05/16 08:29:11;;;;;;;15.50;2.60;;;23.40;42.30;;;;;;1852695;77;21333;-56
2022/05/16 08:31:42;;;;;;;11.25;3.02;;;23.50;42.60;;;;;;1852650;77;21033;-63
2022/05/16 08:34:11;;;;;;;6.40;3.00;;;23.40;42.60;;;;;;1849792;77;21163;-57
2022/05/16 08:42:15;;;;;;;8.83;2.25;;;23.50;41.40;;;;;;1850861;77;21213;-52
2022/05/16 08:45:06;;;;;;;7.08;2.92;;;23.60;40.50;;;;;;1853875;76;21041;-56
2022/05/16 08:47:55;;;;;;;4.28;1.75;;;23.60;40.70;;;;;;1851346;77;21178;-55
2022/05/16 08:50:36;;;;;;;10.88;2.30;;;23.60;40.90;;;;;;1850588;77;21067;-57
2022/05/16 08:53:08;;;;;;;4.30;2.20;;;23.60;39.60;;;;;;1851721;76;21195;-56
2022/05/16 08:55:40;;;;;;;5.50;2.52;;;23.60;39.40;;;;;;1853421;76;21595;-56
2022/05/16 08:58:29;;;;;;;3.90;2.00;;;23.60;39.60;;;;;;1852566;77;21481;-56
2022/05/16 09:01:06;;;;;;;18.85;2.90;;;23.70;38.70;;;;;;1853341;77;21061;-56
2022/05/16 09:03:44;;;;;;;7.50;2.20;;;23.70;39.00;;;;;;1850647;77;21039;-58
2022/05/16 09:06:16;;;;;;;6.47;1.98;;;23.80;39.70;;;;;;1850264;77;21142;-57
2022/05/16 09:08:51;;;;;;;8.45;2.67;;;23.80;39.20;;;;;;1828655;77;21084;-57
2022/05/16 09:11:28;;;;;;;6.85;2.35;;;23.80;40.00;;;;;;1852905;77;21186;-57
2022/05/16 09:14:04;;;;;;;5.62;1.92;;;23.90;40.00;;;;;;1851103;76;21635;-57
2022/05/16 09:16:37;;;;;;;3.92;1.90;;;23.90;39.30;;;;;;1852942;77;21622;-57
2022/05/16 09:19:24;;;;;;;4.37;2.08;;;24.00;40.10;;;;;;1846028;76;21194;-58
2022/05/16 09:22:08;;;;;;;4.92;2.17;;;24.00;38.30;;;;;;1840670;78;21118;-58
2022/05/16 09:24:40;;;;;;;5.45;2.20;;;23.90;39.20;;;;;;1842498;78;21142;-56
2022/05/16 09:30:20;;;;;;;8.05;2.55;;;24.00;40.20;;;;;;1842735;78;21166;-56
2022/05/16 09:32:53;;;;;;;4.67;2.12;;;24.10;39.60;;;;;;1839559;78;21051;-56
2022/05/16 09:35:31;;;;;;;5.62;2.22;;;24.10;39.20;;;;;;1841534;78;21079;-56
2022/05/16 09:38:00;;;;;;;2.92;1.50;;;24.10;39.00;;;;;;1843558;78;21085;-57
2022/05/16 09:40:38;;;;;;;6.97;2.37;;;24.10;38.50;;;;;;1844122;77;21063;-57
2022/05/16 09:43:19;;;;;;;5.05;2.22;;;24.20;39.30;;;;;;1838209;78;21037;-55
2022/05/16 09:45:57;;;;;;;3.92;2.35;;;24.20;40.30;;;;;;1844252;78;21118;-56
2022/05/16 09:48:26;;;;;;;3.75;2.00;;;24.20;39.40;;;;;;1843616;77;21557;-56
2022/05/16 09:51:04;;;;;;;2.85;1.80;;;24.20;39.40;;;;;;1844099;77;21113;-57
2022/05/16 09:53:38;;;;;;;5.03;2.12;;;24.30;38.60;;;;;;1845899;77;21077;-56
2022/05/16 09:56:16;;;;;;;12.37;2.80;;;24.30;38.60;;;;;;1843723;77;21105;-57
2022/05/16 09:59:00;;;;;;;10.75;2.47;;;24.30;39.00;;;;;;1837988;76;21081;-56
2022/05/16 10:01:33;;;;;;;28.62;5.47;;;24.40;39.00;;;;;;1842009;76;21028;-55
2022/05/16 10:04:17;;;;;;;8.88;2.72;;;24.50;39.10;;;;;;1848669;75;21102;-56
2022/05/16 10:07:04;;;;;;;7.00;2.73;;;24.50;37.70;;;;;;1842841;78;21193;-56
2022/05/16 10:09:37;;;;;;;8.88;2.42;;;24.50;37.20;;;;;;1845872;78;21780;-57
2022/05/16 10:12:08;;;;;;;7.15;2.37;;;24.40;38.00;;;;;;1845769;76;21046;-57
2022/05/16 10:14:39;;;;;;;8.08;2.20;;;24.50;37.50;;;;;;1843082;77;21031;-57
2022/05/16 10:17:11;;;;;;;5.87;2.10;;;24.50;38.20;;;;;;1842041;78;21189;-57
2022/05/16 10:19:43;;;;;;;5.53;2.33;;;24.50;39.10;;;;;;1849485;76;21140;-58
2022/05/16 10:22:25;;;;;;;12.68;2.98;;;24.40;38.90;;;;;;1852943;77;21170;-56
2022/05/16 10:24:57;;;;;;;6.50;2.15;;;24.30;39.10;;;;;;1851269;77;21176;-59
2022/05/16 10:27:31;;;;;;;14.58;3.05;;;24.30;39.20;;;;;;1851514;77;21133;-56
2022/05/16 10:30:04;;;;;;;3.40;2.20;;;24.30;38.60;;;;;;1851359;77;21066;-57
2022/05/16 10:35:34;;;;;;;6.78;2.10;;;24.50;38.40;;;;;;1853347;76;21129;-59
2022/05/16 10:38:06;;;;;;;6.47;2.12;;;24.50;37.60;;;;;;1853444;77;21137;-57
2022/05/16 10:40:44;;;;;;;8.93;2.40;;;24.40;38.70;;;;;;1852149;77;21094;-57
2022/05/16 10:43:38;;;;;;;4.35;1.92;;;24.40;38.10;;;;;;1853324;77;21494;-58
2022/05/16 10:46:12;;;;;;;5.28;3.10;;;24.40;38.70;;;;;;1852929;77;21529;-57
2022/05/16 10:48:44;;;;;;;17.05;3.33;;;24.40;38.70;;;;;;1853106;77;21575;-57
2022/05/16 10:51:31;;;;;;;5.25;2.50;;;24.50;38.50;;;;;;1854875;77;21127;-57
2022/05/16 10:54:13;;;;;;;15.28;2.75;;;24.40;38.20;;;;;;1854287;77;21464;-57
2022/05/16 10:56:48;;;;;;;4.80;2.08;;;24.30;38.20;;;;;;1853730;77;21572;-57
2022/05/16 10:59:33;;;;;;;5.90;2.35;;;24.30;39.10;;;;;;1854842;77;21526;-57
2022/05/16 11:02:24;;;;;;;9.30;2.43;;;24.30;39.00;;;;;;1853145;77;21071;-57
2022/05/16 11:05:08;;;;;;;3.58;1.95;;;24.30;38.20;;;;;;1852877;77;21275;-57
2022/05/16 11:07:46;;;;;;;9.93;3.67;;;24.30;38.80;;;;;;1851957;77;21137;-57
2022/05/16 11:10:24;;;;;;;7.37;2.45;;;24.20;39.10;;;;;;1850535;77;21028;-57
2022/05/16 11:13:02;;;;;;;4.42;2.35;;;24.10;39.60;;;;;;1850474;77;22136;-58
2022/05/16 11:15:40;;;;;;;3.62;1.92;;;24.10;39.60;;;;;;1850224;77;21102;-57
2022/05/16 11:18:17;;;;;;;4.90;2.20;;;24.20;39.60;;;;;;1850724;77;21181;-56
2022/05/16 11:20:49;;;;;;;6.05;2.52;;;24.20;39.40;;;;;;1838027;77;21087;-56
2022/05/16 11:23:24;;;;;;;3.98;2.35;;;24.20;39.80;;;;;;1836764;78;21023;-58
2022/05/16 11:25:56;;;;;;;9.53;2.58;;;24.20;40.10;;;;;;1837352;78;21071;-57
2022/05/16 11:28:34;;;;;;;3.58;1.95;;;24.10;39.90;;;;;;1836942;78;21130;-57
2022/05/16 11:31:13;;;;;;;5.90;2.60;;;24.00;40.60;;;;;;1837029;78;21125;-58
2022/05/16 11:33:45;;;;;;;6.62;2.65;;;24.00;40.50;;;;;;1837145;78;21047;-58
2022/05/16 11:36:45;;;;;;;6.45;1.87;;;24.10;40.80;;;;;;1837228;78;21614;-57
2022/05/16 11:39:31;;;;;;;3.60;1.80;;;24.00;40.70;;;;;;1837415;78;21188;-57
2022/05/16 11:42:22;;;;;;;4.72;1.90;;;23.90;41.40;;;;;;1837466;78;21113;-57
2022/05/16 11:45:27;;;;;;;9.50;2.27;;;23.90;40.80;;;;;;1837550;78;21058;-58
2022/05/16 11:47:59;;;;;;;13.05;3.35;;;24.00;40.70;;;;;;1837210;78;21057;-60
2022/05/16 11:50:50;;;;;;;3.08;2.75;;;24.00;40.40;;;;;;1835072;78;21528;-57
2022/05/16 11:53:47;;;;;;;7.97;2.58;;;23.90;39.50;;;;;;1837255;78;21019;-60
2022/05/16 12:02:32;;;;;;;3.67;2.72;;;24.10;40.50;;;;;;1837142;78;21086;-59
2022/05/16 12:05:13;;;;;;;3.95;1.80;;;24.20;41.20;;;;;;1837281;78;21098;-58
2022/05/16 12:07:47;;;;;;;2.95;1.70;;;24.20;41.20;;;;;;1818777;78;21082;-58
2022/05/16 12:10:19;;;;;;;5.00;2.00;;;24.30;40.50;;;;;;1837575;78;21047;-57
2022/05/16 12:12:51;;;;;;;6.50;2.15;;;24.30;40.70;;;;;;1837321;78;21548;-58
2022/05/16 12:15:29;;;;;;;5.62;2.72;;;24.30;41.60;;;;;;1834245;78;21121;-59
2022/05/16 12:18:04;;;;;;;7.65;2.47;;;24.30;41.10;;;;;;1837212;78;21187;-59
2022/05/16 12:20:39;;;;;;;6.35;2.20;;;24.40;41.30;;;;;;1840498;76;21078;-58
2022/05/16 12:23:10;;;;;;;5.60;2.33;;;24.20;41.90;;;;;;1842400;78;21200;-58
2022/05/16 12:25:40;;;;;;;4.55;2.37;;;24.00;42.60;;;;;;1840841;76;21103;-60
2022/05/16 12:28:15;;;;;;;10.60;2.75;;;23.90;43.30;;;;;;1841459;77;21155;-59
2022/05/16 12:30:59;;;;;;;6.10;2.83;;;23.80;43.00;;;;;;1844115;76;21116;-58
2022/05/16 12:33:43;;;;;;;6.53;2.40;;;23.60;41.90;;;;;;1854202;76;21099;-60
2022/05/16 12:36:14;;;;;;;9.50;2.42;;;23.40;43.50;;;;;;1849231;76;21089;-59
2022/05/16 12:38:45;;;;;;;6.28;2.45;;;23.30;43.60;;;;;;1862975;76;21116;-59
2022/05/16 12:41:51;;;;;;;6.58;2.75;;;23.30;44.20;;;;;;1866936;76;22298;-58
2022/05/16 12:44:32;;;;;;;5.00;2.52;;;23.50;44.60;;;;;;1841775;78;21129;-60
2022/05/16 12:47:13;;;;;;;5.62;2.52;;;23.50;44.40;;;;;;1843897;77;21514;-60
2022/05/16 12:49:53;;;;;;;7.62;2.83;;;23.60;45.10;;;;;;1842666;78;21070;-60
2022/05/16 12:52:33;;;;;;;5.58;2.98;;;23.70;44.10;;;;;;1842682;76;21124;-60
2022/05/16 12:55:40;;;;;;;10.20;2.77;;;23.60;44.10;;;;;;1843058;78;21494;-60
2022/05/16 12:58:28;;;;;;;6.37;3.10;;;23.60;44.60;;;;;;1844782;77;21056;-60
2022/05/16 13:01:16;;;;;;;4.45;2.70;;;23.60;45.30;;;;;;1834742;77;21100;-60
2022/05/16 13:04:04;;;;;;;11.22;2.70;;;23.70;45.10;;;;;;1853208;77;21024;-59
2022/05/16 13:06:37;;;;;;;6.58;2.80;;;23.70;44.70;;;;;;1816379;79;21042;-59
2022/05/16 13:09:14;;;;;;;9.65;3.35;;;23.60;44.70;;;;;;1842323;77;21042;-59
2022/05/16 13:12:07;;;;;;;8.45;2.45;;;23.60;45.70;;;;;;1843870;78;21434;-59
2022/05/16 13:14:45;;;;;;;11.33;3.05;;;23.70;44.80;;;;;;1842569;78;21102;-59
2022/05/16 13:17:26;;;;;;;3.98;2.72;;;23.70;44.90;;;;;;1846548;76;21127;-59
2022/05/16 13:19:56;;;;;;;3.90;2.40;;;23.70;44.20;;;;;;1802337;77;21143;-59
2022/05/16 13:22:26;;;;;;;29.67;4.58;;;23.70;44.40;;;;;;1849529;77;21156;-59
2022/05/16 13:24:57;;;;;;;22.82;4.53;;;23.70;43.40;;;;;;1849471;77;21179;-59
2022/05/16 13:30:19;;;;;;;17.02;4.65;;;23.70;43.80;;;;;;1849420;77;21065;-59
2022/05/16 13:32:48;;;;;;;11.12;3.05;;;23.70;44.10;;;;;;1847832;77;21076;-60
2022/05/16 13:35:20;;;;;;;8.23;2.12;;;23.70;43.90;;;;;;1846655;77;21031;-59
2022/05/16 13:37:51;;;;;;;6.12;2.50;;;23.70;43.00;;;;;;1837121;77;21071;-60
2022/05/16 13:40:30;;;;;;;4.90;2.15;;;23.70;42.30;;;;;;1848015;77;21039;-59
2022/05/16 13:43:00;;;;;;;3.55;2.35;;;23.80;42.60;;;;;;1839051;77;21101;-60
2022/05/16 13:45:31;;;;;;;6.28;2.50;;;23.80;43.10;;;;;;1845783;76;21102;-60
2022/05/16 13:48:07;;;;;;;3.85;2.35;;;23.90;42.80;;;;;;1852373;77;21036;-61
2022/05/16 13:50:38;;;;;;;5.65;2.45;;;23.90;42.80;;;;;;1847813;77;21520;-60
2022/05/16 13:53:08;;;;;;;6.87;3.08;;;24.00;42.50;;;;;;1850169;77;21360;-60
2022/05/16 13:55:40;;;;;;;8.75;2.37;;;23.90;42.50;;;;;;1864656;77;21063;-60
2022/05/16 13:58:13;;;;;;;5.00;2.72;;;23.90;42.90;;;;;;1864298;76;21455;-59
2022/05/16 14:00:44;;;;;;;13.50;2.60;;;23.90;43.10;;;;;;1864238;77;21177;-59